createdAt,value
2019-01-28T00:00:06.878Z,98296.59
2019-01-28T00:02:16.036Z,98291.89
2019-01-28T00:05:26.922Z,98294.00
2019-01-28T00:06:31.070Z,98296.06
2019-01-28T00:07:36.639Z,98296.14
2019-01-28T00:08:40.792Z,98295.29
2019-01-28T00:10:48.339Z,98305.59
2019-01-28T00:11:53.324Z,98302.14
2019-01-28T00:12:57.464Z,98309.03
2019-01-28T00:16:10.423Z,98306.84
2019-01-28T00:18:18.380Z,98307.33
2019-01-28T00:21:29.572Z,98308.98
2019-01-28T00:22:33.728Z,98309.83
2019-01-28T00:23:37.889Z,98310.69
2019-01-28T00:24:41.979Z,98308.98
2019-01-28T00:25:46.155Z,98314.17
2019-01-28T00:26:50.296Z,98308.98
2019-01-28T00:27:54.444Z,98311.53
2019-01-28T00:30:01.958Z,98315.47
2019-01-28T00:37:26.369Z,98309.39
2019-01-28T00:41:40.586Z,98309.79
2019-01-28T00:43:48.352Z,98307.20
2019-01-28T00:44:52.492Z,98307.64
2019-01-28T00:47:00.826Z,98307.20
2019-01-28T00:49:08.296Z,98285.09
2019-01-28T00:51:16.749Z,98313.19
2019-01-28T00:52:20.899Z,98309.75
2019-01-28T00:53:26.224Z,98309.75
2019-01-28T00:54:30.340Z,98306.30
2019-01-28T00:57:41.216Z,98315.78
2019-01-28T00:59:48.748Z,98318.33
2019-01-28T01:00:52.888Z,98318.33
2019-01-28T01:03:00.588Z,98321.38
2019-01-28T01:05:08.055Z,98321.81
2019-01-28T01:06:12.211Z,98318.82
2019-01-28T01:14:40.368Z,98322.59
2019-01-28T01:15:44.516Z,98324.73
2019-01-28T01:18:55.391Z,98326.48
2019-01-28T01:19:59.519Z,98331.22
2019-01-28T01:22:07.036Z,98334.66
2019-01-28T01:24:14.698Z,98330.45
2019-01-28T01:25:18.848Z,98332.11
2019-01-28T01:27:26.362Z,98335.95
2019-01-28T01:28:30.601Z,98336.41
2019-01-28T01:29:34.752Z,98335.55
2019-01-28T01:34:52.351Z,98341.19
2019-01-28T01:35:56.516Z,98345.48
2019-01-28T01:39:07.499Z,98347.63
2019-01-28T01:43:23.776Z,98345.88
2019-01-28T01:45:31.300Z,98353.27
2019-01-28T01:47:38.800Z,98354.16
2019-01-28T01:48:42.947Z,98356.25
2019-01-28T01:49:47.098Z,98355.81
2019-01-28T01:50:51.250Z,98355.85
2019-01-28T01:51:55.427Z,98362.73
2019-01-28T01:54:02.971Z,98357.95
2019-01-28T01:55:10.272Z,98360.10
2019-01-28T01:58:22.148Z,98367.88
2019-01-28T02:01:33.049Z,98365.69
2019-01-28T02:02:37.264Z,98360.10
2019-01-28T02:03:41.407Z,98369.58
2019-01-28T02:06:52.297Z,98367.88
2019-01-28T02:08:59.811Z,98373.16
2019-01-28T02:11:10.668Z,98371.01
2019-01-28T02:13:18.189Z,98375.82
2019-01-28T02:15:26.964Z,98379.71
2019-01-28T02:17:34.699Z,98375.42
2019-01-28T02:18:38.896Z,98380.08
2019-01-28T02:19:43.052Z,98376.71
2019-01-28T02:20:47.184Z,98378.45
2019-01-28T02:21:51.407Z,98376.31
2019-01-28T02:23:58.932Z,98380.08
2019-01-28T02:25:03.912Z,98386.12
2019-01-28T02:26:08.059Z,98381.86
2019-01-28T02:29:19.844Z,98387.41
2019-01-28T02:32:30.734Z,98393.16
2019-01-28T02:34:39.213Z,98397.05
2019-01-28T02:36:47.647Z,98395.35
2019-01-28T02:44:12.001Z,98398.14
2019-01-28T02:46:21.464Z,98407.66
2019-01-28T02:49:32.343Z,98410.66
2019-01-28T02:52:43.238Z,98403.77
2019-01-28T02:54:50.813Z,98407.55
2019-01-28T03:00:12.695Z,98409.41
2019-01-28T03:01:17.137Z,98420.18
2019-01-28T03:02:21.247Z,98414.92
2019-01-28T03:06:39.264Z,98419.81
2019-01-28T03:07:43.418Z,98426.70
2019-01-28T03:10:54.309Z,98432.73
2019-01-28T03:11:58.488Z,98428.41
2019-01-28T03:16:13.255Z,98433.99
2019-01-28T03:18:20.767Z,98433.99
2019-01-28T03:22:35.111Z,98446.95
2019-01-28T03:23:39.252Z,98442.26
2019-01-28T03:24:43.411Z,98444.81
2019-01-28T03:25:47.559Z,98448.25
2019-01-28T03:27:55.073Z,98454.22
2019-01-28T03:32:10.109Z,98455.18
2019-01-28T03:33:14.470Z,98452.19
2019-01-28T03:34:18.603Z,98448.63
2019-01-28T03:35:22.812Z,98451.30
2019-01-28T03:36:26.948Z,98450.89
2019-01-28T03:39:37.840Z,98455.27
2019-01-28T03:44:56.314Z,98463.00
2019-01-28T03:47:03.834Z,98476.45
2019-01-28T03:48:07.981Z,98471.70
2019-01-28T03:49:12.139Z,98472.96
2019-01-28T03:51:20.775Z,98475.96
2019-01-28T03:52:24.933Z,98478.15
2019-01-28T03:53:29.073Z,98478.59
2019-01-28T03:55:36.584Z,98483.33
2019-01-28T03:56:40.723Z,98479.97
2019-01-28T03:57:45.781Z,98480.41
2019-01-28T03:59:53.310Z,98480.81
2019-01-28T04:00:57.457Z,98486.45
2019-01-28T04:04:08.881Z,98488.15
2019-01-28T04:05:13.073Z,98488.59
2019-01-28T04:06:17.217Z,98494.19
2019-01-28T04:08:25.003Z,98492.45
2019-01-28T04:09:29.383Z,98493.74
2019-01-28T04:11:37.916Z,98498.92
2019-01-28T04:13:45.678Z,98497.67
2019-01-28T04:20:09.637Z,98514.11
2019-01-28T04:23:20.550Z,98508.89
2019-01-28T04:24:24.687Z,98513.67
2019-01-28T04:26:32.187Z,98520.55
2019-01-28T04:29:43.076Z,98524.95
2019-01-28T04:31:50.599Z,98525.33
2019-01-28T04:32:54.744Z,98531.81
2019-01-28T04:33:58.907Z,98526.63
2019-01-28T04:36:08.365Z,98535.22
2019-01-28T04:37:12.729Z,98538.22
2019-01-28T04:39:21.491Z,98541.26
2019-01-28T04:40:25.606Z,98543.89
2019-01-28T04:41:29.764Z,98550.38
2019-01-28T04:42:34.166Z,98548.19
2019-01-28T04:43:38.320Z,98552.00
2019-01-28T04:55:16.785Z,98573.55
2019-01-28T05:03:45.289Z,98599.48
2019-01-28T05:04:49.444Z,98604.16
2019-01-28T05:06:57.519Z,98607.26
2019-01-28T05:08:01.679Z,98606.75
2019-01-28T05:10:13.679Z,98607.19
2019-01-28T05:11:18.148Z,98609.75
2019-01-28T05:12:22.239Z,98614.08
2019-01-28T05:22:56.765Z,98628.82
2019-01-28T05:24:01.934Z,98640.48
2019-01-28T05:27:16.554Z,98644.37
2019-01-28T05:28:20.698Z,98644.00
2019-01-28T05:29:24.862Z,98650.04
2019-01-28T05:30:29.010Z,98646.53
2019-01-28T05:32:36.533Z,98661.64
2019-01-28T05:34:45.043Z,98668.56
2019-01-28T05:36:53.684Z,98671.67
2019-01-28T05:37:57.816Z,98674.30
2019-01-28T05:39:02.023Z,98682.52
2019-01-28T05:43:21.714Z,98692.11
2019-01-28T05:45:29.419Z,98698.11
2019-01-28T05:47:36.954Z,98702.03
2019-01-28T05:48:41.083Z,98701.59
2019-01-28T05:49:45.247Z,98701.14
2019-01-28T05:50:49.393Z,98704.15
2019-01-28T05:51:53.565Z,98702.03
2019-01-28T05:52:58.135Z,98713.22
2019-01-28T05:56:12.156Z,98715.88
2019-01-28T06:02:35.410Z,98734.57
2019-01-28T06:05:46.318Z,98737.06
2019-01-28T06:06:50.778Z,98742.34
2019-01-28T06:08:58.261Z,98741.91
2019-01-28T06:10:03.811Z,98750.59
2019-01-28T06:15:21.457Z,98759.86
2019-01-28T06:17:28.969Z,98765.52
2019-01-28T06:20:39.853Z,98776.27
2019-01-28T06:21:44.036Z,98781.42
2019-01-28T06:24:54.880Z,98785.30
2019-01-28T06:27:03.312Z,98793.55
2019-01-28T06:29:10.827Z,98793.59
2019-01-28T06:31:26.464Z,98798.23
2019-01-28T06:34:37.337Z,98800.92
2019-01-28T06:35:41.489Z,98803.45
2019-01-28T06:37:49.011Z,98809.05
2019-01-28T06:41:00.191Z,98831.55
2019-01-28T06:42:04.329Z,98830.67
2019-01-28T06:43:08.485Z,98833.67
2019-01-28T06:45:16.017Z,98841.51
2019-01-28T06:46:21.271Z,98842.42
2019-01-28T06:47:25.411Z,98848.05
2019-01-28T06:49:32.931Z,98855.47
2019-01-28T06:51:41.660Z,98854.59
2019-01-28T06:54:53.577Z,98869.31
2019-01-28T06:57:01.099Z,98872.34
2019-01-28T06:59:08.639Z,98868.45
2019-01-28T07:02:28.176Z,98890.48
2019-01-28T07:03:32.324Z,98886.16
2019-01-28T07:04:36.465Z,98893.49
2019-01-28T07:05:40.732Z,98891.34
2019-01-28T07:06:45.819Z,98898.70
2019-01-28T07:07:49.962Z,98911.66
2019-01-28T07:09:57.481Z,98917.70
2019-01-28T07:11:01.649Z,98915.55
2019-01-28T07:13:09.416Z,98920.34
2019-01-28T07:16:23.809Z,98940.20
2019-01-28T07:20:38.072Z,98949.63
2019-01-28T07:22:45.601Z,98966.09
2019-01-28T07:23:49.739Z,98965.65
2019-01-28T07:28:04.104Z,98973.45
2019-01-28T07:29:08.268Z,98978.20
2019-01-28T07:31:19.232Z,98977.73
2019-01-28T07:33:26.776Z,98988.14
2019-01-28T07:34:30.936Z,98989.86
2019-01-28T07:36:38.463Z,98994.63
2019-01-28T07:38:45.974Z,98994.63
2019-01-28T07:39:50.153Z,99001.96
2019-01-28T07:43:01.041Z,99018.83
2019-01-28T07:46:32.248Z,99025.33
2019-01-28T07:47:36.404Z,99033.52
2019-01-28T07:48:40.589Z,99044.75
2019-01-28T07:51:51.527Z,99055.53
2019-01-28T07:55:02.643Z,99049.94
2019-01-28T07:58:14.074Z,99060.25
2019-01-28T07:59:18.323Z,99067.17
2019-01-28T08:01:30.859Z,99061.50
2019-01-28T08:03:38.380Z,99075.23
2019-01-28T08:04:42.528Z,99074.75
2019-01-28T08:07:53.408Z,99082.16
2019-01-28T08:08:57.575Z,99081.28
2019-01-28T08:10:01.700Z,99088.61
2019-01-28T08:18:33.994Z,99103.31
2019-01-28T08:20:41.499Z,99100.28
2019-01-28T08:21:45.653Z,99111.55
2019-01-28T08:23:53.161Z,99107.57
2019-01-28T08:24:57.385Z,99104.44
2019-01-28T08:27:04.851Z,99108.20
2019-01-28T08:29:12.364Z,99122.02
2019-01-28T08:30:25.522Z,99128.50
2019-01-28T08:32:33.279Z,99121.09
2019-01-28T08:33:37.415Z,99132.77
2019-01-28T08:34:41.563Z,99129.36
2019-01-28T08:35:45.804Z,99135.80
2019-01-28T08:36:49.935Z,99138.41
2019-01-28T08:43:10.924Z,99149.78
2019-01-28T08:44:15.067Z,99148.93
2019-01-28T08:45:19.248Z,99154.05
2019-01-28T08:48:30.688Z,99147.70
2019-01-28T08:49:35.087Z,99159.81
2019-01-28T08:50:39.228Z,99165.77
2019-01-28T08:51:43.372Z,99164.06
2019-01-28T08:54:55.014Z,99170.63
2019-01-28T08:57:02.522Z,99176.67
2019-01-28T09:00:33.618Z,99182.43
2019-01-28T09:01:38.141Z,99184.63
2019-01-28T09:05:52.401Z,99190.28
2019-01-28T09:06:56.628Z,99209.25
2019-01-28T09:10:13.492Z,99200.53
2019-01-28T09:11:18.428Z,99213.02
2019-01-28T09:12:22.562Z,99204.33
2019-01-28T09:14:30.089Z,99208.54
2019-01-28T09:16:39.179Z,99223.13
2019-01-28T09:17:43.388Z,99223.18
2019-01-28T09:18:47.588Z,99227.53
2019-01-28T09:20:55.101Z,99232.77
2019-01-28T09:21:59.244Z,99224.65
2019-01-28T09:23:03.397Z,99243.20
2019-01-28T09:24:07.536Z,99248.76
2019-01-28T09:25:13.022Z,99246.61
2019-01-28T09:26:17.421Z,99245.27
2019-01-28T09:29:28.319Z,99256.59
2019-01-28T09:31:37.653Z,99262.48
2019-01-28T09:32:41.805Z,99262.80
2019-01-28T09:35:52.708Z,99270.09
2019-01-28T09:41:22.919Z,99287.66
2019-01-28T09:42:27.075Z,99287.56
2019-01-28T09:43:31.228Z,99296.61
2019-01-28T09:47:47.516Z,99300.75
2019-01-28T09:48:51.792Z,99299.08
2019-01-28T09:58:25.528Z,99320.34
2019-01-28T09:59:29.663Z,99322.73
2019-01-28T10:00:38.208Z,99331.14
2019-01-28T10:04:52.473Z,99343.29
2019-01-28T10:05:56.629Z,99329.30
2019-01-28T10:07:01.277Z,99348.30
2019-01-28T10:10:15.579Z,99352.99
2019-01-28T10:13:26.463Z,99371.00
2019-01-28T10:18:44.776Z,99380.45
2019-01-28T10:19:48.915Z,99388.67
2019-01-28T10:25:07.583Z,99407.45
2019-01-28T10:26:11.736Z,99415.65
2019-01-28T10:27:18.805Z,99409.90
2019-01-28T10:28:22.949Z,99404.70
2019-01-28T10:29:27.164Z,99413.02
2019-01-28T10:30:38.499Z,99412.61
2019-01-28T10:32:45.976Z,99423.89
2019-01-28T10:37:01.006Z,99431.81
2019-01-28T10:43:27.035Z,99443.07
2019-01-28T10:44:31.176Z,99434.83
2019-01-28T10:48:49.685Z,99451.52
2019-01-28T10:50:56.389Z,99455.81
2019-01-28T10:52:00.545Z,99463.23
2019-01-28T10:53:04.927Z,99462.03
2019-01-28T10:55:14.281Z,99465.61
2019-01-28T10:56:18.411Z,99469.45
2019-01-28T11:02:41.741Z,99485.30
2019-01-28T11:04:49.260Z,99491.31
2019-01-28T11:06:56.783Z,99509.12
2019-01-28T11:08:00.932Z,99502.91
2019-01-28T11:09:06.622Z,99499.05
2019-01-28T11:11:17.584Z,99497.10
2019-01-28T11:12:21.996Z,99508.66
2019-01-28T11:13:26.135Z,99507.31
2019-01-28T11:16:38.149Z,99514.94
2019-01-28T11:17:42.736Z,99522.34
2019-01-28T11:19:51.381Z,99529.58
2019-01-28T11:21:59.146Z,99529.26
2019-01-28T11:25:14.925Z,99540.56
2019-01-28T11:26:21.527Z,99530.13
2019-01-28T11:27:25.978Z,99536.64
2019-01-28T11:32:49.547Z,99542.05
2019-01-28T11:36:05.449Z,99546.02
2019-01-28T11:37:06.718Z,99549.97
2019-01-28T11:39:14.814Z,99559.72
2019-01-28T11:40:19.309Z,99566.34
2019-01-28T11:41:23.694Z,99568.02
2019-01-28T11:42:28.061Z,99572.70
2019-01-28T11:43:32.271Z,99575.95
2019-01-28T11:46:48.188Z,99578.58
2019-01-28T11:47:52.577Z,99586.83
2019-01-28T11:48:56.918Z,99580.30
2019-01-28T11:52:09.073Z,99582.34
2019-01-28T11:53:13.216Z,99592.58
2019-01-28T11:56:24.147Z,99593.19
2019-01-28T11:57:28.347Z,99606.98
2019-01-28T11:59:35.875Z,99605.16
2019-01-28T12:00:43.540Z,99606.08
2019-01-28T12:02:51.041Z,99611.16
2019-01-28T12:03:55.191Z,99609.86
2019-01-28T12:04:59.347Z,99605.95
2019-01-28T12:06:03.528Z,99606.30
2019-01-28T12:08:11.099Z,99614.38
2019-01-28T12:10:18.600Z,99614.80
2019-01-28T12:12:26.118Z,99619.23
2019-01-28T12:13:30.280Z,99624.06
2019-01-28T12:16:41.160Z,99635.27
2019-01-28T12:20:55.433Z,99638.28
2019-01-28T12:27:20.942Z,99657.01
2019-01-28T12:30:32.891Z,99664.42
2019-01-28T12:34:47.521Z,99667.77
2019-01-28T12:36:55.093Z,99674.32
2019-01-28T12:40:09.853Z,99672.22
2019-01-28T12:44:24.148Z,99681.48
2019-01-28T12:45:28.823Z,99685.73
2019-01-28T12:48:40.732Z,99685.16
2019-01-28T12:49:44.877Z,99686.36
2019-01-28T12:53:59.128Z,99701.06
2019-01-28T12:56:10.287Z,99704.05
2019-01-28T12:57:14.424Z,99708.70
2019-01-28T13:01:31.022Z,99716.14
2019-01-28T13:03:39.471Z,99718.66
2019-01-28T13:04:43.615Z,99724.23
2019-01-28T13:05:47.783Z,99722.05
2019-01-28T13:06:51.923Z,99726.83
2019-01-28T13:08:59.437Z,99728.09
2019-01-28T13:12:13.411Z,99736.88
2019-01-28T13:13:18.389Z,99740.80
2019-01-28T13:14:22.787Z,99741.81
2019-01-28T13:16:35.051Z,99745.33
2019-01-28T13:19:45.932Z,99753.62
2019-01-28T13:20:53.548Z,99752.36
2019-01-28T13:21:57.698Z,99755.86
2019-01-28T13:24:05.224Z,99758.01
2019-01-28T13:32:43.770Z,99780.45
2019-01-28T13:33:47.873Z,99777.91
2019-01-28T13:36:58.760Z,99777.46
2019-01-28T13:40:12.658Z,99790.47
2019-01-28T13:42:20.140Z,99790.09
2019-01-28T13:44:27.673Z,99795.29
2019-01-28T13:45:31.813Z,99803.11
2019-01-28T13:46:37.289Z,99807.52
2019-01-28T13:47:41.407Z,99803.62
2019-01-28T13:48:45.536Z,99807.55
2019-01-28T13:57:14.903Z,99826.73
2019-01-28T13:58:19.059Z,99822.84
2019-01-28T14:00:28.397Z,99819.91
2019-01-28T14:02:36.836Z,99833.73
2019-01-28T14:04:44.361Z,99835.11
2019-01-28T14:06:51.875Z,99837.41
2019-01-28T14:08:59.785Z,99840.53
2019-01-28T14:11:10.441Z,99842.27
2019-01-28T14:12:14.588Z,99845.33
2019-01-28T14:13:18.755Z,99847.98
2019-01-28T14:16:36.878Z,99855.45
2019-01-28T14:18:44.427Z,99849.88
2019-01-28T14:19:48.773Z,99855.13
2019-01-28T14:20:54.156Z,99858.18
2019-01-28T14:23:02.888Z,99868.23
2019-01-28T14:24:07.936Z,99865.66
2019-01-28T14:27:20.335Z,99870.92
2019-01-28T14:28:24.481Z,99874.84
2019-01-28T14:29:28.908Z,99876.56
2019-01-28T14:30:37.029Z,99876.98
2019-01-28T14:31:41.197Z,99875.23
2019-01-28T14:32:45.341Z,99877.75
2019-01-28T14:43:30.016Z,99885.13
2019-01-28T14:44:34.164Z,99884.73
2019-01-28T14:45:38.296Z,99890.80
2019-01-28T14:47:45.822Z,99894.78
2019-01-28T14:49:54.681Z,99892.11
2019-01-28T14:53:05.897Z,99898.49
2019-01-28T14:54:10.054Z,99904.63
2019-01-28T14:56:17.582Z,99907.33
2019-01-28T14:59:28.468Z,99915.59
2019-01-28T15:00:39.583Z,99922.52
2019-01-28T15:08:05.276Z,99928.78
2019-01-28T15:09:09.856Z,99935.33
2019-01-28T15:11:20.698Z,99944.94
2019-01-28T15:15:37.679Z,99966.19
2019-01-28T15:17:45.225Z,99966.25
2019-01-28T15:23:03.901Z,99974.11
2019-01-28T15:26:18.819Z,99973.71
2019-01-28T15:27:23.749Z,99972.89
2019-01-28T15:28:27.932Z,99967.72
2019-01-28T15:32:42.685Z,99978.23
2019-01-28T15:34:50.596Z,99977.81
2019-01-28T15:38:01.467Z,99980.45
2019-01-28T15:41:18.279Z,99991.28
2019-01-28T15:43:25.796Z,99994.29
2019-01-28T15:44:29.943Z,99990.40
2019-01-28T15:45:37.217Z,99994.25
2019-01-28T15:46:41.390Z,99999.01
2019-01-28T15:48:49.024Z,100006.84
2019-01-28T15:49:53.252Z,100002.09
2019-01-28T15:54:08.644Z,100014.71
2019-01-28T15:59:32.301Z,100023.85
2019-01-28T16:00:38.894Z,100023.02
2019-01-28T16:01:43.293Z,100029.47
2019-01-28T16:02:47.454Z,100032.11
2019-01-28T16:03:53.263Z,100032.50
2019-01-28T16:06:01.140Z,100037.30
2019-01-28T16:11:20.429Z,100049.41
2019-01-28T16:14:31.841Z,100058.09
2019-01-28T16:16:41.698Z,100057.23
2019-01-28T16:17:45.852Z,100055.06
2019-01-28T16:19:53.376Z,100061.55
2019-01-28T16:24:07.917Z,100065.95
2019-01-28T16:25:13.045Z,100066.38
2019-01-28T16:28:23.943Z,100071.59
2019-01-28T16:32:38.479Z,100081.97
2019-01-28T16:34:45.987Z,100078.08
2019-01-28T16:36:53.553Z,100093.20
2019-01-28T16:37:57.707Z,100101.42
2019-01-28T16:39:01.849Z,100094.06
2019-01-28T16:40:09.570Z,100091.95
2019-01-28T16:41:13.711Z,100098.86
2019-01-28T16:42:17.895Z,100097.57
2019-01-28T16:44:25.445Z,100102.31
2019-01-28T16:45:29.588Z,100100.59
2019-01-28T16:49:44.097Z,100116.14
2019-01-28T16:52:55.092Z,100122.63
2019-01-28T16:53:59.256Z,100124.34
2019-01-28T16:56:08.733Z,100123.08
2019-01-28T16:58:16.260Z,100129.98
2019-01-28T17:00:29.590Z,100132.58
2019-01-28T17:01:33.753Z,100133.44
2019-01-28T17:02:37.900Z,100136.89
2019-01-28T17:07:56.452Z,100144.69
2019-01-28T17:10:08.488Z,100147.70
2019-01-28T17:13:19.376Z,100150.75
2019-01-28T17:15:27.621Z,100145.56
2019-01-28T17:16:31.795Z,100148.58
2019-01-28T17:18:39.327Z,100156.77
2019-01-28T17:20:46.867Z,100165.86
2019-01-28T17:30:30.784Z,100182.68
2019-01-28T17:33:41.671Z,100176.63
2019-01-28T17:34:45.829Z,100178.79
2019-01-28T17:36:53.370Z,100180.95
2019-01-28T17:37:57.501Z,100185.70
2019-01-28T17:39:01.724Z,100181.39
2019-01-28T17:40:10.591Z,100179.23
2019-01-28T17:41:14.860Z,100183.98
2019-01-28T17:42:19.944Z,100188.30
2019-01-28T17:43:24.179Z,100190.89
2019-01-28T17:47:38.465Z,100203.41
2019-01-28T17:48:42.630Z,100178.77
2019-01-28T17:50:50.158Z,100212.47
2019-01-28T17:54:01.050Z,100211.16
2019-01-28T17:55:06.035Z,100216.34
2019-01-28T17:58:17.012Z,100218.48
2019-01-28T18:06:45.711Z,100232.31
2019-01-28T18:07:49.868Z,100235.34
2019-01-28T18:08:54.035Z,100242.25
2019-01-28T18:11:02.585Z,100244.84
2019-01-28T18:12:06.759Z,100251.28
2019-01-28T18:13:10.960Z,100255.17
2019-01-28T18:14:15.107Z,100253.02
2019-01-28T18:17:28.154Z,100273.73
2019-01-28T18:20:39.843Z,100266.84
2019-01-28T18:21:43.997Z,100272.86
2019-01-28T18:22:48.159Z,100268.97
2019-01-28T18:27:02.547Z,100253.02
2019-01-28T18:29:10.281Z,100259.89
2019-01-28T18:30:20.293Z,100251.70
2019-01-28T18:33:31.208Z,100249.98
2019-01-28T18:34:35.337Z,100252.58
2019-01-28T18:36:42.882Z,100260.34
2019-01-28T18:39:54.727Z,100263.34
2019-01-28T18:42:02.243Z,100265.92
2019-01-28T18:45:18.379Z,100259.86
2019-01-28T18:47:25.663Z,100267.63
2019-01-28T18:48:29.818Z,100268.91
2019-01-28T18:49:33.955Z,100264.14
2019-01-28T18:51:41.501Z,100268.91
2019-01-28T19:03:26.137Z,100280.39
2019-01-28T19:04:30.292Z,100285.59
2019-01-28T19:06:37.816Z,100291.61
2019-01-28T19:07:42.009Z,100295.92
2019-01-28T19:08:46.129Z,100295.06
2019-01-28T19:09:50.287Z,100288.57
2019-01-28T19:11:57.850Z,100298.92
2019-01-28T19:13:02.027Z,100296.75
2019-01-28T19:14:06.304Z,100299.33
2019-01-28T19:15:10.825Z,100295.01
2019-01-28T19:17:18.352Z,100303.66
2019-01-28T19:21:33.286Z,100306.27
2019-01-28T19:22:37.408Z,100306.23
2019-01-28T19:23:42.628Z,100309.68
2019-01-28T19:24:47.253Z,100302.79
2019-01-28T19:27:58.162Z,100313.53
2019-01-28T19:29:02.321Z,100312.20
2019-01-28T19:32:17.769Z,100319.54
2019-01-28T19:33:21.907Z,100314.37
2019-01-28T19:39:42.956Z,100316.48
2019-01-28T19:40:47.109Z,100316.89
2019-01-28T19:42:54.737Z,100319.91
2019-01-28T19:43:58.942Z,100325.09
2019-01-28T19:51:27.216Z,100336.25
2019-01-28T19:52:31.677Z,100342.25
2019-01-28T19:54:39.516Z,100343.58
2019-01-28T19:55:43.842Z,100342.72
2019-01-28T19:57:52.168Z,100347.92
2019-01-28T20:01:03.652Z,100352.19
2019-01-28T20:03:11.292Z,100357.36
2019-01-28T20:05:18.904Z,100353.91
2019-01-28T20:06:24.237Z,100357.78
2019-01-28T20:09:35.347Z,100359.92
2019-01-28T20:11:42.872Z,100367.27
2019-01-28T20:12:47.041Z,100368.98
2019-01-28T20:15:57.927Z,100371.14
2019-01-28T20:19:10.030Z,100374.53
2019-01-28T20:20:16.432Z,100375.83
2019-01-28T20:21:23.878Z,100384.44
2019-01-28T20:22:26.856Z,100381.43
2019-01-28T20:23:31.239Z,100387.91
2019-01-28T20:24:35.616Z,100385.73
2019-01-28T20:25:40.077Z,100392.20
2019-01-28T20:26:44.581Z,100393.05
2019-01-28T20:27:49.067Z,100395.22
2019-01-28T20:32:04.079Z,100401.73
2019-01-28T20:33:08.233Z,100395.27
2019-01-28T20:34:12.464Z,100397.01
2019-01-28T20:37:23.693Z,100400.97
2019-01-28T20:39:31.957Z,100410.00
2019-01-28T20:40:36.123Z,100408.28
2019-01-28T20:43:47.749Z,100405.25
2019-01-28T20:46:58.672Z,100410.45
2019-01-28T20:50:14.412Z,100408.78
2019-01-28T20:52:22.211Z,100410.08
2019-01-28T20:53:26.726Z,100413.54
2019-01-28T20:57:41.607Z,100424.33
2019-01-28T20:59:51.161Z,100427.34
2019-01-28T21:01:59.956Z,100426.50
2019-01-28T21:05:13.598Z,100427.75
2019-01-28T21:06:18.041Z,100431.20
2019-01-28T21:07:22.504Z,100433.78
2019-01-28T21:08:26.665Z,100434.17
2019-01-28T21:10:34.300Z,100430.69
2019-01-28T21:11:38.509Z,100427.23
2019-01-28T21:12:42.946Z,100421.62
2019-01-28T21:13:47.327Z,100427.66
2019-01-28T21:14:51.560Z,100424.23
2019-01-28T21:16:59.346Z,100425.88
2019-01-28T21:19:07.203Z,100421.59
2019-01-28T21:20:14.857Z,100423.29
2019-01-28T21:21:19.112Z,100425.88
2019-01-28T21:23:26.696Z,100427.15
2019-01-28T21:30:51.114Z,100421.53
2019-01-28T21:34:02.016Z,100427.46
2019-01-28T21:36:11.983Z,100431.77
2019-01-28T21:40:26.703Z,100435.20
2019-01-28T21:41:30.944Z,100432.20
2019-01-28T21:44:41.972Z,100436.91
2019-01-28T21:47:52.865Z,100441.17
2019-01-28T21:48:57.008Z,100440.72
2019-01-28T21:52:09.009Z,100439.37
2019-01-28T21:55:19.921Z,100444.58
2019-01-28T22:00:37.879Z,100457.95
2019-01-28T22:04:52.137Z,100464.88
2019-01-28T22:10:14.030Z,100470.11
2019-01-28T22:12:21.579Z,100475.28
2019-01-28T22:13:25.792Z,100474.39
2019-01-28T22:14:29.956Z,100473.99
2019-01-28T22:16:37.478Z,100480.45
2019-01-28T22:18:45.011Z,100483.04
2019-01-28T22:20:52.537Z,100476.11
2019-01-28T22:26:19.167Z,100480.81
2019-01-28T22:27:23.568Z,100481.68
2019-01-28T22:28:27.743Z,100485.56
2019-01-28T22:31:38.871Z,100485.98
2019-01-28T22:32:43.121Z,100482.08
2019-01-28T22:33:47.311Z,100483.78
2019-01-28T22:35:55.872Z,100483.73
2019-01-28T22:37:00.041Z,100484.60
2019-01-28T22:41:20.401Z,100504.44
2019-01-28T22:42:24.529Z,100511.37
2019-01-28T22:45:35.668Z,100516.52
2019-01-28T22:46:39.817Z,100519.53
2019-01-28T22:53:01.989Z,100538.12
2019-01-28T22:59:26.484Z,100514.02
2019-01-28T23:01:42.819Z,100512.75
2019-01-28T23:05:57.148Z,100514.47
2019-01-28T23:07:01.357Z,100507.98
2019-01-28T23:09:09.500Z,100514.84
2019-01-28T23:15:30.583Z,100510.50
2019-01-28T23:16:34.796Z,100517.39
2019-01-28T23:19:45.696Z,100512.14
2019-01-28T23:20:49.868Z,100512.14
2019-01-28T23:21:54.014Z,100515.60
2019-01-28T23:22:58.161Z,100524.61
2019-01-28T23:24:02.311Z,100519.34
2019-01-28T23:25:06.590Z,100518.42
2019-01-28T23:27:14.186Z,100521.06
2019-01-28T23:32:32.887Z,100522.38
2019-01-28T23:34:40.418Z,100521.93
2019-01-28T23:35:44.635Z,100527.08
2019-01-28T23:39:59.007Z,100517.11
2019-01-28T23:41:03.164Z,100521.41
2019-01-28T23:42:08.338Z,100524.39
2019-01-28T23:43:12.476Z,100526.11
2019-01-28T23:48:30.188Z,100526.06
2019-01-28T23:49:34.379Z,100526.02
2019-01-28T23:54:52.220Z,100519.92
2019-01-28T23:55:56.335Z,100526.39
